Elton, Wisconsin
Current Conditions -  °F | °C
As of 12:15 AM on Wednesday 22 Oct 2014 (Local Time) from KAIG Reporting Station
Clear Clear  
Wind Chill: 27°   Ceiling: Unl
Heat Index: 33°   Visibility: 10mi
Dew Point: 31°   Wind: 6mph
Humidity: 92%   Direction: 110°ESE
Pressure: 30.29"   Gusts: NA
Location:  45.17°N, 88.89°W
Report Text: KAIG 220515Z AUTO 11005KT 10SM CLR 01/M01 A3029 RMK AO2 T00051006
Loading
Personal Weather Stations






























Interactive Weather Map
Tropical Storm Tracking
New forecast layout! Learn more

10-Day Weather Forecast

Advertisements
Track Severe Weather on mobile